KLSSOUTHWEST WASHINGTON RGNL
METARs for nearby airports:
N 0 20' KKLS 191456Z 29008KT 10SM FEW027 SCT036 OVC042 14/08 A3028
S 20 58' KSPB 191453Z 21003KT 10SM OVC038 14/07 A3026
S 31 28' KVUO 191453Z 27007KT 10SM OVC044 15/07 A3027
N 33 177' KCLS 191515Z 29006G12KT 10SM CLR 15/08 A3024
S 34 30' KPDX 191453Z 29009KT 10SM FEW037 BKN045 16/06 A3027
S 34 208' KHIO 191453Z 21004KT 10SM OVC042 13/06 A3027
SE 39 38' KTTD 191453Z 27003KT 10SM FEW036 OVC044 14/07 A3027
W 40 14' KAST 191455Z 32008KT 10SM FEW022 BKN044 13/08 A3028
N 51 207' KOLM 191454Z 21008KT 10SM SCT020 13/07 A3021
S 52 199' KUAO 191453Z 22004KT 10SM OVC044 12/08 A3030
S 56 162' KMMV 191453Z 00000KT 10SM CLR 12/08 A3029
SW 56 39' KTMK 191515Z 30008KT 10SM SCT021 OVC030 13/10 A3032
N 59 301' KGRF 191458Z 17007KT 10SM FEW028 OVC035 12/10 A3021
N 63 322' KTCM 191503Z 20010KT 10SM SCT026 OVC032 12/10 A3022
N 64 537' KPLU 191515Z VRB06G11KT 10SM BKN020 OVC036 12/08 A3022
NW 66 17' KHQM 191453Z 30009KT 6SM HZ BKN044 BKN050 13/10 A3026
N 67 272' KSHN 191453Z 00000KT 10SM FEW017 SCT024 11/06 A3019
N 70 294' KTIW 191453Z 19007KT 10SM OVC020 11/07 A3022
S 72 213' KSLE 191456Z 00000KT 10SM OVC039 13/07 A3028
E 78 246' KDLS 191453Z 29019G29KT 10SM CLR 16/04 A3016
N 82 444' KPWT 191456Z 11003KT 10SM OVC013 11/08 A3021
N 83 432' KSEA 191453Z 18007KT 10SM BKN022 OVC030 13/07 A3021
N 87 32' KRNT 191503Z 17006KT 8SM OVC028 13/08 A3022
N 88 21' KBFI 191453Z 16007KT 10SM OVC025 13/07 A3022
S 98 249' KCVO 191456Z 00000KT 10SM CLR 13/08 A3031
TAFs for nearby airports:
S 34 30' KPDX KPDX 191457Z 1915/2012 29008KT P6SM SCT035 BKN045
  FM191700 31006KT P6SM BKN040
  FM192300 31014G21KT P6SM SCT040
  FM200600 31007KT P6SM OVC040
S 34 208' KHIO KHIO 191128Z 1912/2012 31003KT P6SM OVC035
  FM191700 30007KT P6SM BKN040
  FM192200 32013G18KT P6SM SCT040
  FM200600 30007KT P6SM OVC040
SE 39 38' KTTD KTTD 191128Z 1912/2012 VRB03KT P6SM OVC035
  FM191700 25004KT P6SM BKN040
  FM192200 29009G16KT P6SM SCT040
  FM200600 27006KT P6SM OVC040
W 40 14' KAST KAST 191128Z 1912/2012 31009KT P6SM SCT020 OVC035
  FM192000 30014G21KT P6SM BKN040
  FM200500 30012G18KT P6SM OVC040
  FM201000 29010KT 6SM -RADZ OVC040
N 51 207' KOLM KOLM 191140Z 1912/2012 20006KT P6SM SCT040
  FM191800 22012KT P6SM SCT025 BKN040
S 52 199' KUAO KUAO 191128Z 1912/2012 36004KT P6SM OVC040
  FM191700 01005KT P6SM BKN040
  FM192200 31010G16KT P6SM SCT040
  FM200100 34014G21KT P6SM SKC
  FM200600 33007KT P6SM BKN040
N 59 301' KGRF TAF KGRF 190500Z 1905/2011 20009KT 9999 BKN030 QNH3015INS
  BECMG 1911/1912 VRB06KT 9999 BKN020 QNH3018INS
  BECMG 1920/1921 18010G15KT 9999 BKN030 QNH3013INS
  BECMG 2003/2004 20010G15KT 8000 -SHRA BKN020 QNH3010INS TX17/1921Z TN09/1912Z
N 63 322' KTCM TAF KTCM 191300Z 1913/2019 17006KT 9999 BKN020 QNH3014INS
  BECMG 1920/1921 22010G18KT 9999 VCSH BKN030 QNH3009INS
  BECMG 2003/2004 20010G18KT 8000 -SHRA BKN020 QNH3007INS
  BECMG 2007/2008 23008KT 9999 VCSH BKN020 610505 QNH3005INS
  BECMG 2011/2012 22008KT 9000 -SHRA BKN010 610505 QNH3007INS TX18/1922Z TN10/2012Z
NW 66 17' KHQM KHQM 191140Z 1912/2012 29010KT P6SM SCT040
  TEMPO 1912/1916 5SM BR
  FM191900 29014G24KT P6SM SCT025 BKN040
  FM200600 29010KT P6SM BKN030
S 72 213' KSLE KSLE 191128Z 1912/2012 VRB03KT P6SM SKC
  FM191300 33004KT P6SM BKN035
  FM192100 33010G16KT P6SM SCT040
  FM200100 32015G22KT P6SM SKC
  FM200600 31010KT P6SM SKC
  FM200900 29007KT P6SM BKN040
E 78 246' KDLS TAF KDLS 191120Z 1912/2012 30022G30KT P6SM BKN200
  FM191800 30025G35KT P6SM BKN200
  FM200400 30020G30KT P6SM BKN060
N 82 444' KPWT TAF KPWT 191140Z 1912/2012 16006KT P6SM OVC015
  FM191800 18010KT P6SM OVC020
  FM192200 18012KT P6SM SCT020 OVC035
  FM200600 18012KT P6SM OVC020
N 83 432' KSEA KSEA 191501Z 1915/2018 18007KT P6SM BKN022 OVC030
  FM192200 21012KT P6SM SCT020 OVC035
  FM200400 24010KT P6SM -SHRA SCT006 OVC012
  FM201000 19012KT P6SM OVC020
N 88 21' KBFI KBFI 191140Z 1912/2012 16008KT P6SM OVC020
  FM192200 20010KT P6SM SCT020 OVC035
  FM200300 29008KT P6SM -SHRA SCT006 OVC012
  TEMPO 2003/2007 3SM -SHRA BKN006 OVC012
  FM201000 18010KT P6SM OVC020
Area forecast:
000
FAUS46 KKCI 101945
FA6W  
SFOC FA 101945
SYNOPSIS AND VFR CLDS/WX
SYNOPSIS VALID UNTIL 111400
CLDS/WX VALID UNTIL 110800...OTLK VALID 110800-111400
WA OR CA AND CSTL WTRS
.
SEE AIRMET SIERRA FOR IFR CONDS AND MTN OBSCN.
TS IMPLY SEV OR GTR TURB SEV ICE LLWS AND IFR CONDS.
NON MSL HGTS DENOTED BY AGL OR CIG.
.
SYNOPSIS...UPR LVL TROF WAS LOCATED NR 130W. MOIST SWLY FLOW
EXTDS FROM PAC NW EWD INTO NRN ROCKIES. HIGH PRES RIDGE WAS OVR
MUCH OF THE REST OF THE AREA. BY 14Z...UPR LVL TROF WILL EXTD
FROM WA-OR SWD INTO CA.  ..STREIB..
.
WA CASCDS WWD
CSTL SXNS
CSTLN-INLAND...SCT-BKN025 BKN035-050 TOPS 120-140. ISOL -SHRA.
   OTLK...MVFR CIGS SHRA BR.
PUGET SOUND-INTR VLY...SCT-BKN020 BKN-OVC035-050 TOPS 160 BKN CI.
   WDLY SCT -SHRA. OTLK...MVFR CIGS SHRA.
CASCDS...BKN-OVC050-070 TOPS FL180. BKN CI ABV. WDLY SCT -SHRA.
   OTLK...MVFR CIGS SHRA.
.
WA E OF CASCDS
CNTRL WA...SCT140 OVC CI. BECMG 2302 SCT080 BKN120 LYRD FL240.
   OTLK...VFR.
ERN WA...SCT-BKN140-160 LYRD FL240. BECMG 0508 BKN080 OVC120
   LYRD FL240 ISOL -SHRA DVLPG. OTLK...VFR.
.
OR CASCDS WWD
CSTL SXNS
CSTLN-INLAND...SCT-BKN020 BKN-OVC035-050 TOPS FL180. WDLY SCT
   -SHRA. OTLK...MVFR CIGS SHRA.
WILLAMETTE VLY/SWRN INTR...SCT-BKN020 BKN-OVC035-050 TOPS FL180.
   WDLY SCT -SHRA. OTLK...MVFR CIGS SHRA.
CASCDS...SCT-BKN060 BKN-OVC080-100 TOPS FL180 ISOL -SHRA.
   OTLK...MVFR CIGS SHRA.
.
OR E OF CASCDS
CNTRL...SCT100-120 BKN150 LYRD FL240. OTLK...VFR.
ERN...SCT130-150 BKN CI. BECMG 0205 OVC120-140 LYRD FL240.
   OTLK...VFR.
.
NRN CA...STS-SAC-TVL LN NWD
CSTL SXNS...
   FOT NWD...SCT025 BKN CI ABV. BECMG 0205 SCT020 OVC050 TOPS
      160. ISOL -SHRA. OTLK...IFR CIGS.
   S OF FOT...SCT-BKN010 TOPS 030-040. OTLK...IFR CIGS.
REST OF AREA...SKC OCNL SCT CI. OCNL VYS 3-5SM FU HZ.
   OTLK...VFR.
SAC VLY...
   NRN AND CNTRL SXNS...SKC. OTLK...VFR.
   SRN SXNS...SKC. OCNL VIS 3-5SM FU HZ. OTLK...MVFR FU HZ.
SHASTA-SISKIYOUS-NERN CA...
NRN SIERRAS...SKC OCNL SCT CI. WINDS SLY G25KT. OTLK...VFR WIND.
.
CNTRL CA
CSTL SXNS...
   CSTLN...SKC OCNL SCT010. BECMG 0508 OCNL CIGS BKN-SCT010 TOPS
      020-030. OTLK...IFR CIGS.
   INLAND...SKC. OTLK...VFR BECMG 1114 IFR CIGS BR.
SAN JOAQUIN VLY...SKC. OTLK...VFR.
SRN SIERRAS..SKC. OTLK...VFR.
.
SRN CA..VBG-NID-60NNW BIH LN SWD
CSTL SXNS...
   CSTLN...
      EXTRM SRN SXNS...SKC. BECMG 0205 SCT010. BECMG 0508 CIGS
         BKN-OVC010 TOPS 030. OTLK...IFR CIGS.
      REST OF AREA...SKC. OTLK...VFR BECMG 0811 IFR CIGS BR.
   INLAND...SKC OCNL FEW CI. OTLK...VFR.
INTR MTNS-MOJAVE-SRN DESERTS...SKC OCNL FEW CI. OTLK...VFR.
.
CSTL WTRS
WA...SCT-BKN035-050 TOPS 100-120. ISOL -SHRA. OTLK...VFR.
OR...
NWRN HLF...SCT-BKN035-050 TOPS 100-120. ISOL -SHRA. OTLK...VFR.
SERN HLF...SCT-BKN025 BKN035-050 TOPS FL180 BKN CI ABV. WDLY SCT
   -SHRA. OTLK...MVFR CIGS SHRA.
CA...
NRN CA...
   FOT NWD...SCT025 BKN CI ABV. BECMG 0205 SCT020 OVC050 TOPS
      160. ISOL -SHRA. OTLK...IFR CIGS.
   S OF FOT...SCT-BKN010 TOPS 030-040. OTLK...IFR CIGS.
CNTRL CA...SCT-BKN010 TOPS 030-040. OTLK...IFR CIGS.
SRN CA...
   OUTER CSTL WTRS...CIGS BKN010-020 TOPS 030-050.
      OTLK...IFR CIGS.
   ADJ CSTL WTRS...SKC. OCNL AGL SCT010. OTLK...VFR BECMG 0811
      IFR CIGS BR.
.
THE AREA FORECAST WILL TERMINATE AT 2359Z ON 10 OCTOBER 2017. IN
PLACE OF THE AREA FORECAST...PLEASE SEE THE GRAPHICAL FORECAST AT
WWW.AVIATIONWEATHER.GOV/GFA. GRAPHICAL AND TEXT AIRMETS WILL
CONTINUE AS REGULARLY SCHEDULED.
....

Shortcut to this page: http://wxbay.com.

Data may contain errors.